Latest Weather Observations for Maningrida Airport

IDD60801

Issued at 8:31 am CST Tuesday 3 March 2015 (issued every 30 minutes, with the page automatically refreshed every 10 minutes)

About weather observations | Map of weather stations | Latest weather observations for NT | Other Formats
Station Details ID: 014405 Name: MANINGRIDA AIRPORT Lat: -12.06 Lon: 134.23 Height: 28.1 m
Data from the previous 72 hours. | See also: Recent months at Maningrida Airport
Date/Time
CST
Temp
°C
App
Temp
°C
Dew
Point
Rel
Hum
%
Delta-T
°C
Wind Press
QNH
hPa
Press
MSL
hPa
Rain
since 9 am
mm
Dir
 
Spd
km/h
Gust
km/h
Spd
kts
Gust
kts
03/08:30am 27.3 33.9 27.3 100 0.0 ESE 7 7 4 4 1007.2 1007.0 0.0
03/08:00am 26.1 31.6 26.1 100 0.0 ESE 9 11 5 6 1006.7 1006.5 0.0
03/07:30am 25.5 30.9 25.5 100 0.0 ESE 7 9 4 5 1006.0 1005.9 0.0
03/07:00am 24.6 29.7 24.6 100 0.0 E 6 7 3 4 1005.8 1005.6 0.0
03/06:30am 24.4 29.2 24.4 100 0.0 SE 7 9 4 5 1005.3 1005.1 0.0
03/06:00am 24.3 29.2 24.3 100 0.0 SE 6 7 3 4 1004.8 1004.6 0.0
03/05:30am 24.5 29.5 24.5 100 0.0 SE 6 7 3 4 1004.6 1004.4 0.0
03/05:00am 24.6 29.5 24.6 100 0.0 ESE 7 9 4 5 1004.5 1004.3 0.0
03/04:30am 24.5 29.3 24.5 100 0.0 SE 7 7 4 4 1004.3 1004.1 0.0
03/04:00am 24.5 29.3 24.5 100 0.0 SE 7 9 4 5 1004.3 1004.1 0.0
03/03:30am 24.5 29.9 24.5 100 0.0 SE 4 6 2 3 1004.5 1004.3 0.0
03/03:00am 24.6 29.1 24.6 100 0.0 S 9 9 5 5 1004.5 1004.3 0.0
03/02:30am 24.7 29.6 24.7 100 0.0 N 7 9 4 5 1004.7 1004.5 0.0
03/02:00am 24.8 29.8 24.8 100 0.0 N 7 9 4 5 1004.6 1004.4 0.0
03/01:30am 25.0 30.7 25.0 100 0.0 N 4 6 2 3 1005.0 1004.8 0.0
03/01:00am 25.3 30.6 25.3 100 0.0 N 7 9 4 5 1005.2 1005.0 0.0
03/12:30am 25.5 32.3 25.5 100 0.0 CALM 0 0 0 0 1005.1 1004.9 0.0
03/12:00am 25.7 31.5 25.7 100 0.0 N 6 7 3 4 1005.5 1005.3 0.0
 
Date/Time
CST
Temp
°C
App
Temp
°C
Dew
Point
Rel
Hum
%
Delta-T
°C
Wind Press
QNH
hPa
Press
MSL
hPa
Rain
since 9 am
mm
Dir
 
Spd
km/h
Gust
km/h
Spd
kts
Gust
kts
02/11:30pm 26.1 32.5 26.1 100 0.0 N 4 6 2 3 1005.5 1005.3 0.0
02/11:00pm 26.7 32.7 26.4 98 0.2 N 7 9 4 5 1005.7 1005.5 0.0
02/10:30pm 26.8 32.5 26.5 98 0.2 N 9 13 5 7 1005.8 1005.6 0.0
02/10:00pm 27.0 32.9 26.8 99 0.1 N 9 15 5 8 1005.6 1005.4 0.0
02/09:30pm 26.9 32.1 26.9 100 0.0 N 13 17 7 9 1005.2 1005.0 0.0
02/09:00pm 26.3 32.5 26.3 100 0.0 NE 6 7 3 4 1004.5 1004.3 0.0
02/08:30pm 26.7 33.1 26.7 100 0.0 ENE 6 9 3 5 1004.2 1004.0 0.0
02/08:00pm 26.9 32.8 26.7 99 0.1 NNE 9 13 5 7 1004.0 1003.8 0.0
02/07:30pm 27.2 33.2 26.9 98 0.2 NNE 9 15 5 8 1003.8 1003.6 0.0
02/07:00pm 27.2 32.7 26.7 97 0.4 NNE 11 15 6 8 1003.3 1003.1 0.0
02/06:30pm 27.7 32.9 26.8 95 0.6 N 13 17 7 9 1002.8 1002.6 0.0
02/06:00pm 28.3 33.7 27.1 93 0.9 N 13 17 7 9 1002.5 1002.3 0.0
02/05:30pm 28.9 34.4 26.7 88 1.6 N 11 13 6 7 1002.3 1002.1 0.0
02/05:00pm 29.1 34.6 26.7 87 1.7 N 11 13 6 7 1002.1 1001.9 0.0
02/04:30pm 28.8 34.3 26.2 86 1.9 N 9 13 5 7 1001.9 1001.7 0.0
02/04:00pm 29.2 34.7 26.2 84 2.1 NNE 9 13 5 7 1002.1 1001.9 0.0
02/03:30pm 29.1 33.8 26.1 84 2.1 N 13 17 7 9 1002.4 1002.2 0.0
02/03:00pm 29.7 34.7 25.4 78 3.0 E 9 15 5 8 1002.7 1002.5 0.0
02/02:30pm 29.7 34.3 25.4 78 3.0 ESE 11 20 6 11 1002.9 1002.7 0.0
02/02:00pm 30.0 34.8 26.2 80 2.7 ESE 13 19 7 10 1003.3 1003.1 0.0
02/01:30pm 28.9 34.4 26.1 85 2.0 SE 9 13 5 7 1003.8 1003.6 0.0
02/01:07pm 28.5 34.4 26.7 90 1.3 S 9 15 5 8 1004.2 1004.0 0.0
02/01:00pm 28.1 34.1 26.3 90 1.3 SSW 7 13 4 7 1004.3 1004.1 0.0
02/12:30pm 26.8 31.9 26.1 96 0.5 S 11 17 6 9 1004.4 1004.2 0.0
02/12:00pm 26.5 31.8 26.5 100 0.0 SW 11 19 6 10 1004.8 1004.6 0.0
02/11:30am 26.0 30.6 26.0 100 0.0 SSW 13 17 7 9 1005.2 1005.0 0.0
02/11:08am 26.3 31.9 26.3 100 0.0 SW 9 17 5 9 1005.6 1005.4 0.0
02/11:00am 26.0 31.0 26.0 100 0.0 SW 11 15 6 8 1005.7 1005.5 0.0
02/10:59am 25.7 30.9 25.7 100 0.0 SW 9 15 5 8 1005.7 1005.5 0.0
02/10:30am 24.9 29.6 24.9 100 0.0 WSW 9 15 5 8 1006.0 1005.8 0.0
02/10:14am 24.9 29.2 24.9 100 0.0 W 11 17 6 9 1006.2 1006.0 0.0
02/10:00am 25.4 30.4 25.4 100 0.0 WSW 9 13 5 7 1006.3 1006.1 0.0
02/09:30am 24.2 29.0 24.2 100 0.0 W 6 11 3 6 1006.4 1006.2 0.0
02/09:07am 23.7 27.7 23.7 100 0.0 NNW 9 13 5 7 1006.4 1006.2 0.0
02/09:00am 23.7 27.3 23.7 100 0.0 NNW 11 15 6 8 1006.6 1006.4 105.0
02/08:56am 23.7 27.7 23.7 100 0.0 WNW 9 15 5 8 1006.5 1006.3 104.8
02/08:38am 23.5 26.2 23.5 100 0.0 N 15 22 8 12 1006.3 1006.1 102.8
02/08:35am 23.5 26.6 23.5 100 0.0 NNE 13 22 7 12 1006.2 1006.0 102.4
02/08:30am 23.4 27.6 23.4 100 0.0 ENE 7 13 4 7 1006.2 1006.0 100.8
02/08:00am 23.2 26.9 23.2 100 0.0 SW 9 13 5 7 1005.5 1005.3 100.2
02/07:30am 23.0 26.2 23.0 100 0.0 SW 11 22 6 12 1005.0 1004.8 100.0
02/07:00am 22.9 26.4 22.9 100 0.0 SW 9 15 5 8 1004.7 1004.5 99.6
02/06:30am 22.8 25.5 22.8 100 0.0 WSW 13 19 7 10 1004.5 1004.3 99.4
02/06:00am 22.9 26.0 22.9 100 0.0 WSW 11 19 6 10 1004.6 1004.4 99.0
02/05:30am 23.0 25.8 23.0 100 0.0 W 13 20 7 11 1004.5 1004.3 98.4
02/05:23am 23.1 26.0 23.1 100 0.0 W 13 20 7 11 1004.5 1004.3 98.2
02/05:20am 23.1 26.3 23.1 100 0.0 W 11 17 6 9 1004.5 1004.3 98.2
02/05:00am 23.2 26.5 23.2 100 0.0 W 11 20 6 11 1004.7 1004.5 96.8
02/04:31am 23.5 27.0 23.5 100 0.0 WNW 11 17 6 9 1004.9 1004.7 82.2
02/04:30am 23.6 27.1 23.6 100 0.0 WNW 11 17 6 9 1004.8 1004.6 81.6
02/04:06am 23.8 27.1 23.8 100 0.0 NW 13 22 7 12 1004.4 1004.2 75.6
02/04:00am 23.8 27.1 23.8 100 0.0 NW 13 19 7 10 1004.5 1004.3 74.2
02/03:38am 23.7 26.5 23.7 100 0.0 NW 15 22 8 12 1004.3 1004.1 73.6
02/03:33am 23.7 26.9 23.7 100 0.0 WNW 13 20 7 11 1004.3 1004.1 73.6
02/03:30am 23.7 26.9 23.7 100 0.0 WNW 13 22 7 12 1004.2 1004.0 73.6
02/03:00am 23.6 27.1 23.6 100 0.0 WNW 11 17 6 9 1004.8 1004.6 68.4
02/02:30am 23.6 27.1 23.6 100 0.0 NNW 11 20 6 11 1005.5 1005.3 61.0
02/02:28am 23.6 27.1 23.6 100 0.0 NNW 11 20 6 11 1005.6 1005.4 60.4
02/02:17am 23.6 26.7 23.6 100 0.0 NW 13 19 7 10 1004.9 1004.7 59.2
02/02:04am 23.6 26.7 23.6 100 0.0 NW 13 19 7 10 1005.3 1005.1 58.8
02/02:02am 23.6 27.1 23.6 100 0.0 NW 11 19 6 10 1005.3 1005.1 58.6
02/02:00am 23.6 27.1 23.6 100 0.0 NW 11 17 6 9 1005.4 1005.2 58.2
02/01:43am 23.7 27.7 23.7 100 0.0 W 9 15 5 8 1005.6 1005.4 57.0
02/01:31am 23.9 27.6 23.9 100 0.0 WNW 11 15 6 8 1005.6 1005.4 56.2
02/01:30am 23.8 27.4 23.8 100 0.0 WNW 11 15 6 8 1005.6 1005.4 56.2
02/01:29am 23.8 27.4 23.8 100 0.0 WNW 11 15 6 8 1005.5 1005.3 56.2
02/01:07am 24.3 29.2 24.3 100 0.0 W 6 11 3 6 1005.6 1005.4 54.4
02/01:00am 24.3 29.2 24.3 100 0.0 W 6 9 3 5 1005.9 1005.7 53.6
02/12:38am 24.2 28.8 24.2 100 0.0 WNW 7 13 4 7 1006.0 1005.8 53.2
02/12:30am 24.2 28.8 24.2 100 0.0 WNW 7 9 4 5 1006.0 1005.8 53.0
02/12:00am 24.0 27.8 24.0 100 0.0 SSW 11 15 6 8 1006.3 1006.1 46.0
 
Date/Time
CST
Temp
°C
App
Temp
°C
Dew
Point
Rel
Hum
%
Delta-T
°C
Wind Press
QNH
hPa
Press
MSL
hPa
Rain
since 9 am
mm
Dir
 
Spd
km/h
Gust
km/h
Spd
kts
Gust
kts
01/11:45pm 24.1 26.4 24.1 100 0.0 SSE 19 28 10 15 1006.6 1006.4 43.0
01/11:43pm 24.2 26.4 24.2 100 0.0 SSE 20 30 11 16 1006.5 1006.3 42.4
01/11:38pm 24.2 26.4 24.2 100 0.0 S 20 30 11 16 1006.2 1006.0 41.8
01/11:30pm 24.4 27.3 24.4 100 0.0 S 17 28 9 15 1006.2 1006.0 41.6
01/11:03pm 24.7 27.7 24.7 100 0.0 SW 17 30 9 16 1005.8 1005.6 34.4
01/11:00pm 24.8 29.0 24.8 100 0.0 SW 11 30 6 16 1005.9 1005.7 29.4
01/10:44pm 25.1 29.1 25.1 100 0.0 WNW 13 24 7 13 1006.0 1005.8 17.4
01/10:33pm 25.3 27.8 25.3 100 0.0 WNW 22 44 12 24 1006.1 1005.9 16.0
01/10:30pm 25.4 27.5 25.4 100 0.0 WNW 24 44 13 24 1006.0 1005.8 15.4
01/10:00pm 25.9 30.5 25.9 100 0.0 WNW 13 17 7 9 1004.8 1004.6 2.4
01/09:58pm 25.9 30.3 25.6 98 0.2 WNW 13 17 7 9 1004.8 1004.6 2.0
01/09:30pm 26.9 31.1 25.3 91 1.1 WSW 13 26 7 14 1004.6 1004.4 1.0
01/09:00pm 26.5 31.6 25.5 94 0.7 SW 9 17 5 9 1004.7 1004.5 1.0
01/08:30pm 26.4 31.5 26.1 98 0.2 WSW 11 19 6 10 1004.1 1003.9 1.0
01/08:00pm 26.7 31.8 25.5 93 0.8 WSW 9 15 5 8 1004.4 1004.2 1.0
01/07:30pm 27.3 32.7 25.5 90 1.3 WSW 7 9 4 5 1003.8 1003.6 1.0
01/07:00pm 28.1 33.7 26.3 90 1.3 WNW 9 17 5 9 1003.8 1003.6 1.0
01/06:30pm 28.2 33.8 28.0 99 0.1 NW 15 24 8 13 1003.6 1003.4 1.0
01/06:00pm 28.6 33.9 28.6 100 0.0 NNW 19 24 10 13 1002.8 1002.6 1.0
01/05:30pm 28.5 33.7 28.5 100 0.0 NW 19 26 10 14 1002.5 1002.3 1.0
01/05:00pm 28.6 34.3 28.6 100 0.0 NNW 17 22 9 12 1002.2 1002.0 1.0
01/04:30pm 27.8 34.0 27.8 100 0.0 NNE 11 17 6 9 1002.2 1002.0 1.0
01/04:02pm 27.0 33.1 27.0 100 0.0 NW 9 15 5 8 1002.6 1002.4 1.0
01/04:00pm 26.9 32.9 26.9 100 0.0 NW 9 15 5 8 1002.5 1002.3 1.0
01/03:47pm 26.5 29.0 24.5 89 1.4 ENE 19 33 10 18 1002.9 1002.7 1.0
01/03:30pm 30.0 35.7 27.0 84 2.2 N 11 15 6 8 1002.8 1002.6 0.0
01/03:00pm 30.7 36.5 27.7 84 2.2 NW 13 17 7 9 1002.9 1002.7 0.0
01/02:30pm 30.4 35.7 27.0 82 2.5 NNW 13 17 7 9 1003.3 1003.1 0.0
01/02:00pm 30.6 37.2 27.2 82 2.5 NNW 7 13 4 7 1004.2 1004.0 0.0
01/01:30pm 30.5 37.3 26.7 80 2.7 SSW 4 7 2 4 1005.0 1004.8 0.0
01/01:00pm 29.9 36.4 27.1 85 2.0 WSW 7 11 4 6 1004.9 1004.7 0.0
01/12:30pm 29.9 35.4 26.7 83 2.3 W 11 15 6 8 1005.4 1005.2 0.0
01/12:00pm 29.5 35.5 26.9 86 1.9 WSW 9 17 5 9 1005.9 1005.7 0.0
01/11:30am 28.7 35.5 27.3 92 1.0 SW 6 11 3 6 1006.3 1006.1 0.0
01/11:00am 28.5 34.8 27.4 94 0.8 SW 9 13 5 7 1006.9 1006.7 0.0
01/10:30am 28.3 34.6 27.4 95 0.7 SW 9 15 5 8 1006.8 1006.6 0.0
01/10:00am 27.8 34.1 27.3 97 0.4 WSW 9 17 5 9 1006.6 1006.4 0.0
01/09:30am 27.5 33.9 27.5 100 0.0 WSW 9 17 5 9 1006.7 1006.5 0.0
01/09:00am 27.0 33.1 27.0 100 0.0 WSW 9 13 5 7 1007.0 1006.8 1.4
01/08:30am 26.5 32.2 26.5 100 0.0 WSW 9 15 5 8 1006.8 1006.6 1.4
01/08:00am 26.4 32.4 26.4 100 0.0 WSW 7 13 4 7 1006.5 1006.3 1.4
01/07:30am 26.2 32.1 26.2 100 0.0 W 7 15 4 8 1006.2 1006.0 1.4
01/07:00am 26.0 31.4 26.0 100 0.0 WSW 9 13 5 7 1005.6 1005.4 1.4
01/06:30am 26.0 31.8 26.0 100 0.0 W 7 9 4 5 1005.5 1005.3 1.4
01/06:00am 26.1 31.9 26.1 100 0.0 WSW 7 13 4 7 1005.1 1004.9 1.4
01/05:30am 26.2 31.7 26.2 100 0.0 W 9 15 5 8 1004.6 1004.4 1.4
01/05:00am 26.3 31.9 26.3 100 0.0 W 9 13 5 7 1004.5 1004.3 1.4
01/04:30am 26.4 31.7 26.4 100 0.0 W 11 17 6 9 1004.2 1004.0 1.4
01/04:00am 26.4 31.7 26.4 100 0.0 W 11 20 6 11 1004.2 1004.0 1.4
01/03:30am 26.3 32.3 26.3 100 0.0 W 7 11 4 6 1004.5 1004.3 1.4
01/03:00am 26.2 31.7 26.2 100 0.0 W 9 13 5 7 1004.7 1004.5 1.4
01/02:30am 26.2 31.7 26.2 100 0.0 W 9 11 5 6 1004.9 1004.7 1.4
01/02:00am 26.1 31.9 26.1 100 0.0 W 7 13 4 7 1005.3 1005.1 1.4
01/01:30am 25.8 31.4 25.8 100 0.0 WSW 7 11 4 6 1005.5 1005.3 1.4
01/01:00am 25.7 31.3 25.7 100 0.0 W 7 15 4 8 1005.8 1005.6 1.4
01/12:30am 25.0 30.7 25.0 100 0.0 W 4 7 2 4 1006.2 1006.0 1.4
01/12:00am 25.1 30.9 25.1 100 0.0 WSW 4 6 2 3 1006.7 1006.5 1.4
 
Date/Time
CST
Temp
°C
App
Temp
°C
Dew
Point
Rel
Hum
%
Delta-T
°C
Wind Press
QNH
hPa
Press
MSL
hPa
Rain
since 9 am
mm
Dir
 
Spd
km/h
Gust
km/h
Spd
kts
Gust
kts
28/11:30pm 25.0 30.3 25.0 100 0.0 WSW 6 7 3 4 1007.0 1006.8 1.4
28/11:00pm 25.1 30.5 25.1 100 0.0 WSW 6 9 3 5 1006.8 1006.6 1.4
28/10:30pm 25.0 30.1 25.0 100 0.0 W 7 15 4 8 1006.4 1006.2 1.4
28/10:00pm 24.7 31.0 24.7 100 0.0 CALM 0 0 0 0 1006.2 1006.0 1.4
28/09:30pm 24.6 29.1 24.6 100 0.0 WNW 9 13 5 7 1006.0 1005.8 1.4
28/09:00pm 25.2 31.4 25.2 100 0.0 NW 2 9 1 5 1005.5 1005.3 1.4
28/08:30pm 25.0 30.7 25.0 100 0.0 NW 4 7 2 4 1005.1 1004.9 1.2
28/08:00pm 24.8 30.4 24.8 100 0.0 NW 4 7 2 4 1004.6 1004.4 1.2
28/07:30pm 24.2 28.8 24.2 100 0.0 W 7 11 4 6 1005.1 1004.9 1.2
28/07:03pm 24.4 28.8 24.4 100 0.0 S 9 13 5 7 1005.7 1005.5 0.8
28/07:00pm 24.5 28.6 24.5 100 0.0 S 11 19 6 10 1005.8 1005.6 0.8
28/06:52pm 24.5 26.8 24.5 100 0.0 SSW 20 37 11 20 1005.9 1005.7 0.6
28/06:30pm 29.0 35.2 27.7 93 0.9 WNW 11 19 6 10 1004.8 1004.6 0.0
28/06:00pm 29.1 33.2 27.7 92 1.0 NNW 22 28 12 15 1004.0 1003.8 0.0
28/05:54pm 29.3 34.0 28.0 93 0.9 NNW 20 28 11 15 1003.9 1003.7 0.0
28/05:44pm 29.5 34.1 27.9 91 1.2 NNW 20 30 11 16 1004.0 1003.8 0.0
28/05:30pm 30.0 34.8 28.2 90 1.3 NW 20 30 11 16 1003.4 1003.2 0.0
28/05:00pm 29.5 33.7 27.1 87 1.7 NNW 19 28 10 15 1003.4 1003.2 0.0
28/04:30pm 30.9 33.8 26.6 78 3.1 NNW 24 32 13 17 1003.7 1003.5 0.0
28/04:00pm 31.1 35.2 27.7 82 2.5 NNW 22 32 12 17 1003.8 1003.6 0.0
28/03:30pm 31.2 35.0 27.8 82 2.5 NNW 24 32 13 17 1004.0 1003.8 0.0
28/03:00pm 30.7 34.2 26.8 80 2.8 N 22 32 12 17 1004.2 1004.0 0.0
28/02:30pm 31.4 36.1 27.7 81 2.7 N 19 24 10 13 1004.4 1004.2 0.0
28/02:00pm 30.7 35.1 26.8 80 2.8 NNW 17 22 9 12 1004.8 1004.6 0.0
28/01:30pm 31.9 37.2 25.0 67 4.9 SW 6 17 3 9 1005.5 1005.3 0.0
28/01:00pm 32.2 37.5 25.3 67 4.9 WSW 7 9 4 5 1006.1 1005.9 0.0
28/12:30pm 31.7 36.5 25.1 68 4.7 W 9 15 5 8 1006.7 1006.5 0.0
28/12:00pm 31.1 35.2 24.5 68 4.6 WSW 11 19 6 10 1006.8 1006.6 0.0
28/11:30am 30.7 35.3 24.8 71 4.2 SW 9 19 5 10 1006.9 1006.7 0.0
28/11:00am 29.7 34.3 24.8 75 3.4 WSW 9 13 5 7 1007.0 1006.8 0.0
28/10:30am 29.7 34.2 25.2 77 3.2 WSW 11 17 6 9 1007.2 1007.0 0.0
28/10:00am 28.7 33.4 25.5 83 2.3 W 11 17 6 9 1007.6 1007.4 0.0
28/09:30am 28.3 33.0 25.5 85 2.0 W 11 19 6 10 1007.6 1007.4 0.0
28/09:00am 27.5 33.0 26.1 92 1.0 WNW 9 11 5 6 1007.3 1007.1 0.0

Other Formats:

Comma delimited format used in spreadsheet applications
http://www.bom.gov.au/fwo/IDD60801/IDD60801.95142.axf

JavaScript Object Notation format (JSON) in row-major order
http://www.bom.gov.au/fwo/IDD60801/IDD60801.95142.json